Time;durP1;ratioP1;P1;durP2;ratioP2;P2;SDS_P1;SDS_P2;PMS_P1;PMS_P2;Temp;Humidity;BMP_temperature;BMP_pressure;BME280_temperature;BME280_humidity;BME280_pressure;Samples;Min_cycle;Max_cycle;Signal;HPM_P1;HPM_P2
2021/12/05 00:19:49;;;;;;;19.60;5.97;;;;;;;;;;5071290;28;20206;-71
2021/12/05 00:22:18;;;;;;;18.10;5.67;;;;;;;;;;5079105;28;20202;-71
2021/12/05 00:24:50;;;;;;;20.57;5.57;;;;;;;;;;5067206;28;20212;-72
2021/12/05 00:27:18;;;;;;;20.80;6.97;;;;;;;;;;5080304;28;20165;-72
2021/12/05 00:29:53;;;;;;;21.70;6.23;;;;;;;;;;5070645;28;20176;-71
2021/12/05 00:45:52;;;;;;;20.17;5.10;;;;;;;;;;5078923;28;20270;-72
2021/12/05 00:48:40;;;;;;;13.57;4.83;;;;;;;;;;5069098;28;20174;-72
2021/12/05 00:59:16;;;;;;;16.20;6.07;;;;;;;;;;5074588;28;20183;-71
2021/12/05 01:07:29;;;;;;;17.10;5.87;;;;;;;;;;5078625;28;20167;-71
2021/12/05 01:10:14;;;;;;;13.70;4.57;;;;;;;;;;5083118;28;20169;-71
2021/12/05 01:15:28;;;;;;;19.60;5.00;;;;;;;;;;5025583;28;20220;-71
2021/12/05 01:18:10;;;;;;;14.27;5.33;;;;;;;;;;5072518;28;20174;-72
2021/12/05 01:20:39;;;;;;;12.43;5.00;;;;;;;;;;5072697;28;20180;-72
2021/12/05 01:23:14;;;;;;;17.17;5.70;;;;;;;;;;5078569;28;20196;-72
2021/12/05 01:25:54;;;;;;;18.73;6.50;;;;;;;;;;5054637;28;20262;-72
2021/12/05 01:36:07;;;;;;;16.27;4.70;;;;;;;;;;5079110;28;20282;-72
2021/12/05 01:41:28;;;;;;;13.73;4.70;;;;;;;;;;5073606;28;20190;-71
2021/12/05 01:46:52;;;;;;;15.87;5.03;;;;;;;;;;5073574;28;20266;-72
2021/12/05 01:57:51;;;;;;;9.83;4.10;;;;;;;;;;4990488;28;20182;-72
2021/12/05 02:29:20;;;;;;;9.63;4.27;;;;;;;;;;5083608;28;20560;-72
2021/12/05 02:30:36;;;;;;;8.83;3.97;;;;;;;;;;5069434;28;20230;-74
2021/12/05 02:33:28;;;;;;;15.00;4.43;;;;;;;;;;5069549;28;20192;-74
2021/12/05 02:43:40;;;;;;;15.00;5.00;;;;;;;;;;5075661;28;20231;-74
2021/12/05 02:46:06;;;;;;;14.57;4.30;;;;;;;;;;5071818;28;20208;-73
2021/12/05 02:48:35;;;;;;;18.83;4.87;;;;;;;;;;5068315;28;20256;-74
2021/12/05 02:51:01;;;;;;;13.83;4.73;;;;;;;;;;5056040;28;20172;-74
2021/12/05 02:53:51;;;;;;;11.50;4.27;;;;;;;;;;5071412;28;20196;-74
2021/12/05 02:56:13;;;;;;;11.97;3.37;;;;;;;;;;5071685;28;20592;-73
2021/12/05 02:58:47;;;;;;;21.43;6.23;;;;;;;;;;5072418;28;20654;-73
2021/12/05 03:01:22;;;;;;;11.67;3.67;;;;;;;;;;5072185;28;20180;-74
2021/12/05 03:03:48;;;;;;;11.53;4.13;;;;;;;;;;5070363;28;20296;-74
2021/12/05 03:06:18;;;;;;;13.17;3.77;;;;;;;;;;5066753;28;20275;-74
2021/12/05 03:08:47;;;;;;;13.93;4.27;;;;;;;;;;5067235;28;20522;-73
2021/12/05 03:11:14;;;;;;;13.60;4.30;;;;;;;;;;5072133;28;20179;-73
2021/12/05 03:13:40;;;;;;;12.60;4.13;;;;;;;;;;5052365;28;20242;-73
2021/12/05 03:16:06;;;;;;;12.00;3.50;;;;;;;;;;5070094;28;20681;-73
2021/12/05 03:18:31;;;;;;;10.50;3.53;;;;;;;;;;5066572;28;20185;-74
2021/12/05 03:20:58;;;;;;;13.43;4.53;;;;;;;;;;5067128;28;20173;-74
2021/12/05 03:23:23;;;;;;;12.10;4.20;;;;;;;;;;5055240;28;20209;-74
2021/12/05 03:25:49;;;;;;;10.60;3.93;;;;;;;;;;5058479;28;20227;-75
2021/12/05 03:28:14;;;;;;;9.67;3.73;;;;;;;;;;5054799;28;20177;-73
2021/12/05 03:30:39;;;;;;;12.13;4.67;;;;;;;;;;5067260;28;20654;-73
2021/12/05 03:33:04;;;;;;;10.23;3.90;;;;;;;;;;5053616;28;20177;-74
2021/12/05 03:35:30;;;;;;;14.40;3.97;;;;;;;;;;5074605;28;20279;-74
2021/12/05 03:37:57;;;;;;;10.67;3.90;;;;;;;;;;5067567;28;20269;-74
2021/12/05 03:40:23;;;;;;;9.30;4.17;;;;;;;;;;5071374;28;20185;-75
2021/12/05 03:42:49;;;;;;;10.50;3.07;;;;;;;;;;5068966;28;20231;-74
2021/12/05 03:45:19;;;;;;;9.30;3.83;;;;;;;;;;5068325;28;20205;-73
2021/12/05 03:47:44;;;;;;;11.43;4.60;;;;;;;;;;5060732;28;20177;-73
2021/12/05 03:50:10;;;;;;;18.23;4.53;;;;;;;;;;5052514;28;20184;-73
2021/12/05 03:52:36;;;;;;;15.27;4.43;;;;;;;;;;5069865;28;20188;-74
2021/12/05 03:55:02;;;;;;;20.17;6.93;;;;;;;;;;5054165;28;20293;-76
2021/12/05 03:57:27;;;;;;;14.73;5.03;;;;;;;;;;5067149;28;20196;-73
2021/12/05 03:59:53;;;;;;;11.47;4.70;;;;;;;;;;5054410;28;20173;-73
2021/12/05 04:02:18;;;;;;;13.30;4.47;;;;;;;;;;5068435;28;20208;-73
2021/12/05 04:04:43;;;;;;;14.90;4.77;;;;;;;;;;5069699;28;20201;-74
2021/12/05 04:07:08;;;;;;;12.37;4.87;;;;;;;;;;5068725;28;20200;-74
2021/12/05 04:09:34;;;;;;;9.50;5.37;;;;;;;;;;5068647;28;20181;-74
2021/12/05 04:12:01;;;;;;;15.00;5.47;;;;;;;;;;5051615;28;20180;-74
2021/12/05 04:14:29;;;;;;;10.90;4.97;;;;;;;;;;5071740;28;20258;-74
2021/12/05 04:16:55;;;;;;;13.27;6.13;;;;;;;;;;5050907;28;20620;-74
2021/12/05 04:19:20;;;;;;;15.27;5.97;;;;;;;;;;5068575;28;20273;-73
2021/12/05 04:21:46;;;;;;;13.27;5.33;;;;;;;;;;5067981;28;20212;-73
2021/12/05 04:24:12;;;;;;;16.97;5.47;;;;;;;;;;5050405;28;20169;-75
2021/12/05 04:26:37;;;;;;;9.90;5.23;;;;;;;;;;5068382;28;20196;-72
2021/12/05 04:29:03;;;;;;;12.60;5.93;;;;;;;;;;5068803;28;20168;-75
2021/12/05 04:31:29;;;;;;;14.17;6.43;;;;;;;;;;5047121;28;20673;-73
2021/12/05 04:33:54;;;;;;;14.63;6.00;;;;;;;;;;5069284;28;20642;-74
2021/12/05 04:36:19;;;;;;;11.53;5.53;;;;;;;;;;5068417;28;20196;-74
2021/12/05 04:38:45;;;;;;;12.47;5.03;;;;;;;;;;5068694;28;21547;-74
2021/12/05 04:41:10;;;;;;;13.23;4.97;;;;;;;;;;5071983;28;20528;-73
2021/12/05 04:43:37;;;;;;;10.37;5.47;;;;;;;;;;5069036;28;20200;-75
2021/12/05 04:46:04;;;;;;;14.57;4.67;;;;;;;;;;5068135;28;20242;-76
2021/12/05 04:48:29;;;;;;;11.50;4.97;;;;;;;;;;5069202;28;20184;-72
2021/12/05 04:50:54;;;;;;;8.73;5.10;;;;;;;;;;5068582;28;20177;-74
2021/12/05 04:53:22;;;;;;;16.90;5.93;;;;;;;;;;5062418;28;20177;-73
2021/12/05 04:55:47;;;;;;;11.87;5.33;;;;;;;;;;5066885;28;20200;-73
2021/12/05 04:58:12;;;;;;;14.70;5.67;;;;;;;;;;5070152;28;20180;-73
2021/12/05 05:00:40;;;;;;;13.47;6.50;;;;;;;;;;5068081;28;20195;-73
2021/12/05 05:03:06;;;;;;;15.97;5.10;;;;;;;;;;5067885;28;20533;-73
2021/12/05 05:05:32;;;;;;;11.50;4.77;;;;;;;;;;5068807;28;20196;-73
2021/12/05 05:07:58;;;;;;;14.07;4.60;;;;;;;;;;5068697;28;20638;-72
2021/12/05 05:10:26;;;;;;;12.57;4.73;;;;;;;;;;5069823;28;20540;-74
2021/12/05 05:12:51;;;;;;;8.50;4.70;;;;;;;;;;5071170;28;20181;-73
2021/12/05 05:15:21;;;;;;;11.53;5.07;;;;;;;;;;5070455;28;20197;-73
2021/12/05 05:17:49;;;;;;;8.03;4.27;;;;;;;;;;5050057;28;20187;-74
2021/12/05 05:20:23;;;;;;;12.57;4.40;;;;;;;;;;5068797;28;20181;-74
2021/12/05 05:44:34;;;;;;;7.90;5.90;;;;;;;;;;5067972;28;20183;-74
2021/12/05 05:47:09;;;;;;;12.23;6.30;;;;;;;;;;5072922;28;20180;-73
2021/12/05 05:52:12;;;;;;;11.07;6.83;;;;;;;;;;5072999;28;20186;-74
2021/12/05 05:54:37;;;;;;;9.20;6.80;;;;;;;;;;5074049;28;20232;-73
2021/12/05 05:57:16;;;;;;;14.93;7.57;;;;;;;;;;5074725;28;20230;-73
2021/12/05 06:00:08;;;;;;;11.53;7.57;;;;;;;;;;5066620;28;20176;-73
2021/12/05 06:05:11;;;;;;;11.33;7.00;;;;;;;;;;5073800;28;20204;-77
2021/12/05 06:07:41;;;;;;;14.20;8.50;;;;;;;;;;5072036;28;20260;-73
2021/12/05 06:10:07;;;;;;;10.33;7.70;;;;;;;;;;5070949;28;20507;-75
2021/12/05 06:12:32;;;;;;;11.10;8.13;;;;;;;;;;5072876;28;20181;-74
2021/12/05 06:14:57;;;;;;;15.23;8.40;;;;;;;;;;5072355;28;20299;-73
2021/12/05 06:17:22;;;;;;;11.00;8.30;;;;;;;;;;5071764;28;20184;-74
2021/12/05 06:19:48;;;;;;;12.60;8.67;;;;;;;;;;5073029;28;20193;-73
2021/12/05 06:22:13;;;;;;;11.33;8.63;;;;;;;;;;5072861;28;20204;-73
2021/12/05 06:24:38;;;;;;;12.27;8.63;;;;;;;;;;5070927;28;20267;-73
2021/12/05 06:27:03;;;;;;;11.57;8.50;;;;;;;;;;5072397;28;20568;-73
2021/12/05 06:29:35;;;;;;;17.13;9.57;;;;;;;;;;5071136;28;20660;-74
2021/12/05 06:45:58;;;;;;;13.37;10.30;;;;;;;;;;5012233;28;20742;-73
2021/12/05 06:48:35;;;;;;;12.73;9.03;;;;;;;;;;5073084;28;20192;-72
2021/12/05 06:51:00;;;;;;;14.27;9.40;;;;;;;;;;5075384;28;20173;-72
2021/12/05 06:53:26;;;;;;;11.83;9.10;;;;;;;;;;5071534;28;20184;-73
2021/12/05 06:55:51;;;;;;;15.27;9.37;;;;;;;;;;5073990;28;20214;-73
2021/12/05 06:58:16;;;;;;;11.80;9.77;;;;;;;;;;5079290;28;20598;-74
2021/12/05 07:00:41;;;;;;;10.73;8.97;;;;;;;;;;5069629;28;20181;-74
2021/12/05 07:03:08;;;;;;;12.93;10.40;;;;;;;;;;5070363;28;20204;-72
2021/12/05 07:08:05;;;;;;;13.37;9.63;;;;;;;;;;5069381;28;20184;-72
2021/12/05 07:10:34;;;;;;;16.17;9.73;;;;;;;;;;5072041;28;20169;-74
2021/12/05 07:15:44;;;;;;;15.07;10.13;;;;;;;;;;5078908;28;20204;-72
2021/12/05 07:21:42;;;;;;;16.47;10.97;;;;;;;;;;5070039;28;20195;-72
2021/12/05 07:24:08;;;;;;;12.73;10.33;;;;;;;;;;5060398;28;20228;-74
2021/12/05 07:40:24;;;;;;;14.93;9.70;;;;;;;;;;5059230;28;20180;-73
2021/12/05 07:43:09;;;;;;;13.83;10.17;;;;;;;;;;5073346;28;20253;-73
2021/12/05 07:45:42;;;;;;;14.97;10.30;;;;;;;;;;5063664;28;20199;-75
2021/12/05 07:48:13;;;;;;;12.80;10.23;;;;;;;;;;5069050;28;20169;-75
2021/12/05 07:51:00;;;;;;;17.20;11.43;;;;;;;;;;5052237;28;20214;-74
2021/12/05 07:53:31;;;;;;;16.73;11.63;;;;;;;;;;5051592;28;20173;-73
2021/12/05 07:56:04;;;;;;;12.70;10.33;;;;;;;;;;5067479;28;20208;-72
2021/12/05 08:01:06;;;;;;;16.27;10.60;;;;;;;;;;5075132;28;20195;-75
2021/12/05 08:14:41;;;;;;;14.70;11.60;;;;;;;;;;5069910;28;20264;-73
2021/12/05 08:17:13;;;;;;;16.00;10.90;;;;;;;;;;5051967;28;20173;-72
2021/12/05 08:19:38;;;;;;;15.20;10.60;;;;;;;;;;5067472;28;20185;-72
2021/12/05 08:22:04;;;;;;;15.87;10.70;;;;;;;;;;5069545;28;20207;-74
2021/12/05 08:24:33;;;;;;;17.30;10.70;;;;;;;;;;5069991;28;20185;-72
2021/12/05 08:27:00;;;;;;;14.50;10.43;;;;;;;;;;5069712;28;20210;-73
2021/12/05 08:29:39;;;;;;;13.83;10.83;;;;;;;;;;5069150;28;20464;-73
2021/12/05 09:23:22;;;;;;;16.57;11.57;;;;;;;;;;5069946;28;20243;-75
2021/12/05 09:39:28;;;;;;;12.27;10.20;;;;;;;;;;5072769;28;20317;-73
2021/12/05 10:01:29;;;;;;;15.27;10.13;;;;;;;;;;5073523;28;20280;-73
2021/12/05 10:11:49;;;;;;;14.30;10.70;;;;;;;;;;5071689;28;20192;-74
2021/12/05 10:14:24;;;;;;;13.70;9.77;;;;;;;;;;5055629;28;20311;-74
2021/12/05 10:34:39;;;;;;;13.03;8.47;;;;;;;;;;4987827;28;20191;-74
2021/12/05 10:37:17;;;;;;;10.67;8.07;;;;;;;;;;5070622;28;20569;-74
2021/12/05 10:39:43;;;;;;;10.60;8.07;;;;;;;;;;5052680;28;20176;-74
2021/12/05 10:42:43;;;;;;;10.60;7.87;;;;;;;;;;5079295;28;20732;-74
2021/12/05 10:45:28;;;;;;;11.53;7.50;;;;;;;;;;5060837;28;20645;-73
2021/12/05 10:47:55;;;;;;;13.43;8.47;;;;;;;;;;5055390;28;20271;-73
2021/12/05 10:50:26;;;;;;;11.10;8.07;;;;;;;;;;5072784;28;20189;-74
2021/12/05 10:53:10;;;;;;;12.63;8.17;;;;;;;;;;5070718;28;20667;-74
2021/12/05 10:55:35;;;;;;;11.17;8.20;;;;;;;;;;5076714;28;20219;-74
2021/12/05 10:58:05;;;;;;;14.50;8.93;;;;;;;;;;5070067;28;20666;-73
2021/12/05 11:00:30;;;;;;;13.97;9.33;;;;;;;;;;5071823;28;20173;-74
2021/12/05 11:03:12;;;;;;;17.17;10.30;;;;;;;;;;5069073;28;20262;-73
2021/12/05 11:05:39;;;;;;;15.50;10.37;;;;;;;;;;5068798;28;20236;-73
2021/12/05 11:08:06;;;;;;;15.37;10.17;;;;;;;;;;5072559;28;20252;-74
2021/12/05 11:10:40;;;;;;;13.63;10.47;;;;;;;;;;5070953;28;20223;-74
2021/12/05 11:13:25;;;;;;;15.20;9.63;;;;;;;;;;5067415;28;20559;-74
2021/12/05 11:15:51;;;;;;;12.67;9.77;;;;;;;;;;5050531;28;20291;-74
2021/12/05 11:18:36;;;;;;;14.83;9.20;;;;;;;;;;5073014;28;20248;-74
2021/12/05 11:21:01;;;;;;;12.43;9.80;;;;;;;;;;5070693;28;20181;-75
2021/12/05 11:23:26;;;;;;;13.73;9.93;;;;;;;;;;5077839;28;20197;-74
2021/12/05 11:25:51;;;;;;;14.20;10.17;;;;;;;;;;5069748;28;20255;-72
2021/12/05 11:28:18;;;;;;;15.10;10.97;;;;;;;;;;5070442;28;20256;-72
2021/12/05 11:30:45;;;;;;;14.30;10.07;;;;;;;;;;5068916;28;20547;-73
2021/12/05 11:33:21;;;;;;;15.57;9.93;;;;;;;;;;5053514;28;20187;-73
2021/12/05 11:35:49;;;;;;;16.20;10.90;;;;;;;;;;5069582;28;20202;-73
2021/12/05 11:38:17;;;;;;;14.07;10.33;;;;;;;;;;5056582;28;20210;-73
2021/12/05 11:40:55;;;;;;;17.67;10.80;;;;;;;;;;5059930;28;20183;-74
2021/12/05 11:43:28;;;;;;;15.37;10.47;;;;;;;;;;5057497;28;20204;-73
2021/12/05 11:46:03;;;;;;;17.30;11.23;;;;;;;;;;5070549;28;20189;-76
2021/12/05 11:48:28;;;;;;;17.03;10.97;;;;;;;;;;5068174;28;20172;-73
2021/12/05 11:50:53;;;;;;;17.17;11.35;;;;;;;;;;5055757;28;20180;-73
2021/12/05 11:53:39;;;;;;;15.23;10.23;;;;;;;;;;5069043;28;20185;-73
2021/12/05 11:56:04;;;;;;;15.73;9.70;;;;;;;;;;5068928;28;20204;-74
2021/12/05 11:58:29;;;;;;;14.27;10.67;;;;;;;;;;5070866;28;20242;-73
2021/12/05 12:01:00;;;;;;;15.00;10.77;;;;;;;;;;5069567;28;20181;-74
2021/12/05 12:03:29;;;;;;;14.53;10.37;;;;;;;;;;5070357;28;20274;-74
2021/12/05 12:05:55;;;;;;;13.67;10.50;;;;;;;;;;5067980;28;20208;-74
2021/12/05 12:08:20;;;;;;;13.67;9.53;;;;;;;;;;5068722;28;20721;-73
2021/12/05 12:10:47;;;;;;;14.60;10.13;;;;;;;;;;5069504;28;20669;-73
2021/12/05 12:13:19;;;;;;;14.37;10.17;;;;;;;;;;5074822;28;20181;-73
2021/12/05 12:15:45;;;;;;;16.37;11.10;;;;;;;;;;5071345;28;20196;-73
2021/12/05 12:18:27;;;;;;;14.20;10.83;;;;;;;;;;5068715;28;20189;-73
2021/12/05 12:20:52;;;;;;;16.17;11.23;;;;;;;;;;5067287;28;20641;-73
2021/12/05 12:23:19;;;;;;;14.10;10.17;;;;;;;;;;5069471;28;20284;-73
2021/12/05 12:25:46;;;;;;;14.13;11.10;;;;;;;;;;5071722;28;20204;-74
2021/12/05 12:28:12;;;;;;;15.80;10.67;;;;;;;;;;5071124;28;20173;-74
2021/12/05 12:30:40;;;;;;;14.50;11.07;;;;;;;;;;5070812;28;20176;-74
2021/12/05 12:33:11;;;;;;;15.27;11.63;;;;;;;;;;5057846;28;20203;-74
2021/12/05 12:35:37;;;;;;;19.80;11.20;;;;;;;;;;5074747;28;20280;-73
2021/12/05 12:38:08;;;;;;;14.00;10.53;;;;;;;;;;5072876;28;20267;-73
2021/12/05 12:40:51;;;;;;;15.20;10.57;;;;;;;;;;5068566;28;20188;-73
2021/12/05 12:43:35;;;;;;;16.83;11.57;;;;;;;;;;5050100;28;20209;-73
2021/12/05 12:46:13;;;;;;;13.50;10.07;;;;;;;;;;5070821;28;20200;-74
2021/12/05 12:48:38;;;;;;;16.53;11.17;;;;;;;;;;5067041;28;20193;-74
2021/12/05 12:51:03;;;;;;;13.10;10.07;;;;;;;;;;5071974;28;20209;-74
2021/12/05 12:53:29;;;;;;;13.57;10.30;;;;;;;;;;5076410;28;20196;-77
2021/12/05 12:55:55;;;;;;;13.40;10.23;;;;;;;;;;5071329;28;20625;-72
2021/12/05 12:58:35;;;;;;;15.93;10.80;;;;;;;;;;5055211;28;20283;-73
2021/12/05 13:01:15;;;;;;;11.47;9.17;;;;;;;;;;5059423;28;20665;-72
2021/12/05 13:12:30;;;;;;;14.80;9.97;;;;;;;;;;5073803;28;20207;-75
2021/12/05 13:15:05;;;;;;;12.27;9.73;;;;;;;;;;5068659;28;20211;-75
2021/12/05 13:17:45;;;;;;;13.43;9.43;;;;;;;;;;5061706;28;20180;-74
2021/12/05 13:20:11;;;;;;;12.27;9.43;;;;;;;;;;5052994;28;20247;-73
2021/12/05 13:22:55;;;;;;;13.97;9.87;;;;;;;;;;5073268;28;20260;-73
2021/12/05 13:25:20;;;;;;;13.70;10.13;;;;;;;;;;5059850;28;20299;-73
2021/12/05 13:27:45;;;;;;;12.57;8.97;;;;;;;;;;5070619;28;20596;-73
2021/12/05 13:30:11;;;;;;;12.77;9.33;;;;;;;;;;5071358;28;20668;-73
2021/12/05 13:32:37;;;;;;;13.13;9.53;;;;;;;;;;5072423;28;20185;-74
2021/12/05 13:35:07;;;;;;;13.37;10.40;;;;;;;;;;5076726;28;20200;-73
2021/12/05 13:37:34;;;;;;;13.17;10.27;;;;;;;;;;5071171;28;20187;-74
2021/12/05 13:40:07;;;;;;;14.77;10.80;;;;;;;;;;5072390;28;20192;-74
2021/12/05 13:42:37;;;;;;;14.17;10.93;;;;;;;;;;5071843;28;20207;-74
2021/12/05 13:45:08;;;;;;;14.77;11.23;;;;;;;;;;5058515;28;20293;-72
2021/12/05 13:47:33;;;;;;;14.53;10.93;;;;;;;;;;5068441;28;20599;-72
2021/12/05 13:50:23;;;;;;;14.80;10.70;;;;;;;;;;5055612;28;20176;-73
2021/12/05 13:52:55;;;;;;;14.17;10.13;;;;;;;;;;5068019;28;20617;-72
2021/12/05 13:55:29;;;;;;;11.57;9.37;;;;;;;;;;5070498;28;20573;-72
2021/12/05 13:58:13;;;;;;;12.23;9.10;;;;;;;;;;5040121;28;20616;-74
2021/12/05 14:00:46;;;;;;;13.67;8.90;;;;;;;;;;5071878;28;20225;-71
2021/12/05 14:03:12;;;;;;;13.23;9.50;;;;;;;;;;5079947;28;20257;-74
2021/12/05 14:05:45;;;;;;;13.67;9.73;;;;;;;;;;5069325;28;20208;-73
2021/12/05 14:08:10;;;;;;;14.37;9.97;;;;;;;;;;5066706;28;20188;-76
2021/12/05 14:10:43;;;;;;;12.83;9.67;;;;;;;;;;5064316;28;20189;-74
2021/12/05 14:13:09;;;;;;;14.73;11.67;;;;;;;;;;5072228;28;20650;-75
2021/12/05 14:15:34;;;;;;;18.23;12.77;;;;;;;;;;5068110;28;20287;-73
2021/12/05 14:18:00;;;;;;;14.30;11.13;;;;;;;;;;5071219;28;20256;-73
2021/12/05 14:20:26;;;;;;;12.57;9.73;;;;;;;;;;5070662;28;20177;-73
2021/12/05 14:22:51;;;;;;;14.10;10.33;;;;;;;;;;5076350;28;20197;-73
2021/12/05 14:25:24;;;;;;;12.40;9.63;;;;;;;;;;5070401;28;20591;-71
2021/12/05 14:27:55;;;;;;;13.43;9.87;;;;;;;;;;5073374;28;20227;-72
2021/12/05 14:30:21;;;;;;;13.07;9.27;;;;;;;;;;5072684;28;20168;-72
2021/12/05 14:32:47;;;;;;;12.27;9.47;;;;;;;;;;5074671;28;20527;-71
2021/12/05 14:35:17;;;;;;;11.67;9.47;;;;;;;;;;5072790;28;20583;-71
2021/12/05 14:37:44;;;;;;;11.53;9.53;;;;;;;;;;5071924;28;20184;-71
2021/12/05 14:40:11;;;;;;;10.67;8.67;;;;;;;;;;5076915;28;20242;-71
2021/12/05 14:42:39;;;;;;;11.50;9.17;;;;;;;;;;5056144;28;20700;-72
2021/12/05 14:45:06;;;;;;;13.03;8.67;;;;;;;;;;5070150;28;20201;-71
2021/12/05 14:47:33;;;;;;;8.97;7.73;;;;;;;;;;5068678;28;20673;-71
2021/12/05 14:50:10;;;;;;;11.53;8.00;;;;;;;;;;5076780;28;20264;-72
2021/12/05 14:52:37;;;;;;;9.57;8.47;;;;;;;;;;5071200;28;20264;-71
2021/12/05 14:55:04;;;;;;;9.83;7.53;;;;;;;;;;5052957;28;20224;-71
2021/12/05 14:57:31;;;;;;;9.87;8.30;;;;;;;;;;5069824;28;20237;-71
2021/12/05 15:00:07;;;;;;;10.67;8.40;;;;;;;;;;5050377;28;20731;-72
2021/12/05 15:02:33;;;;;;;10.40;9.07;;;;;;;;;;5074089;28;20192;-72
2021/12/05 15:04:58;;;;;;;9.27;7.27;;;;;;;;;;5068143;28;20631;-72
2021/12/05 15:07:24;;;;;;;11.73;8.80;;;;;;;;;;5067064;28;20176;-72
2021/12/05 15:09:52;;;;;;;10.10;6.97;;;;;;;;;;5070578;28;20185;-72
2021/12/05 15:12:20;;;;;;;9.43;7.37;;;;;;;;;;5054169;28;20448;-71
2021/12/05 15:14:46;;;;;;;14.80;12.10;;;;;;;;;;5068823;28;20208;-70
2021/12/05 15:17:22;;;;;;;13.10;9.37;;;;;;;;;;5070389;28;20263;-70
2021/12/05 15:19:50;;;;;;;10.80;8.80;;;;;;;;;;5070587;28;20185;-71
2021/12/05 15:22:15;;;;;;;12.80;10.70;;;;;;;;;;5052584;28;20191;-73
2021/12/05 15:24:41;;;;;;;9.90;7.77;;;;;;;;;;5075963;28;20200;-70
2021/12/05 15:27:11;;;;;;;13.37;10.37;;;;;;;;;;5071929;28;20184;-70
2021/12/05 15:29:37;;;;;;;14.77;10.10;;;;;;;;;;5081556;28;20291;-70
2021/12/05 15:32:02;;;;;;;9.77;7.13;;;;;;;;;;5055557;28;20279;-71
2021/12/05 15:34:30;;;;;;;12.80;8.37;;;;;;;;;;5072878;28;20229;-71
2021/12/05 15:36:55;;;;;;;10.57;8.83;;;;;;;;;;5070256;28;20250;-71
2021/12/05 15:39:23;;;;;;;11.07;8.37;;;;;;;;;;5076455;28;20591;-71
2021/12/05 15:41:49;;;;;;;12.93;9.63;;;;;;;;;;5070457;28;20189;-71
2021/12/05 15:44:25;;;;;;;11.37;8.37;;;;;;;;;;5051209;28;20213;-71
2021/12/05 15:46:58;;;;;;;12.67;10.13;;;;;;;;;;5067621;28;20208;-72
2021/12/05 15:49:25;;;;;;;18.40;11.40;;;;;;;;;;5070195;28;20185;-72
2021/12/05 15:51:58;;;;;;;21.40;12.23;;;;;;;;;;5072088;28;20197;-71
2021/12/05 15:54:24;;;;;;;16.20;11.73;;;;;;;;;;5069809;28;20177;-71
2021/12/05 15:56:53;;;;;;;26.70;14.70;;;;;;;;;;5068920;28;20238;-71
2021/12/05 15:59:19;;;;;;;24.20;13.80;;;;;;;;;;5076852;28;20182;-71
2021/12/05 16:01:45;;;;;;;14.80;11.43;;;;;;;;;;5060002;28;20665;-69
2021/12/05 16:04:18;;;;;;;18.90;12.73;;;;;;;;;;5043165;28;20240;-71
2021/12/05 16:06:43;;;;;;;13.77;10.57;;;;;;;;;;5068327;28;20451;-71
2021/12/05 16:09:14;;;;;;;13.43;10.03;;;;;;;;;;5052956;28;20203;-72
2021/12/05 16:11:39;;;;;;;11.57;9.23;;;;;;;;;;5073248;28;20176;-70
2021/12/05 16:14:04;;;;;;;12.90;9.70;;;;;;;;;;5068921;28;20181;-70
2021/12/05 16:16:30;;;;;;;11.27;8.50;;;;;;;;;;5063323;28;20200;-72
2021/12/05 16:18:57;;;;;;;14.23;9.13;;;;;;;;;;5067783;28;20192;-70
2021/12/05 16:21:26;;;;;;;14.57;10.60;;;;;;;;;;5049825;28;20188;-72
2021/12/05 16:23:53;;;;;;;14.30;9.93;;;;;;;;;;5074763;28;20639;-72
2021/12/05 16:26:21;;;;;;;12.90;10.13;;;;;;;;;;5058653;28;20208;-72
2021/12/05 16:28:51;;;;;;;12.23;9.30;;;;;;;;;;5075183;28;20183;-71
2021/12/05 16:31:21;;;;;;;13.60;9.83;;;;;;;;;;5069471;28;20181;-71
2021/12/05 16:33:54;;;;;;;13.23;9.90;;;;;;;;;;5069127;28;20180;-70
2021/12/05 16:36:19;;;;;;;15.23;11.90;;;;;;;;;;5068865;28;20939;-69
2021/12/05 16:38:46;;;;;;;13.83;10.23;;;;;;;;;;5069387;28;20180;-71
2021/12/05 16:41:24;;;;;;;15.57;11.17;;;;;;;;;;5072796;28;20239;-71
2021/12/05 16:44:04;;;;;;;14.03;11.13;;;;;;;;;;5050102;28;20686;-71
2021/12/05 16:46:37;;;;;;;13.37;10.83;;;;;;;;;;5069448;28;20193;-71
2021/12/05 16:49:06;;;;;;;17.60;12.17;;;;;;;;;;5071907;28;20182;-70
2021/12/05 16:51:44;;;;;;;15.13;11.47;;;;;;;;;;5057333;28;20177;-72
2021/12/05 16:54:18;;;;;;;15.23;10.93;;;;;;;;;;5066061;28;20544;-70
2021/12/05 16:56:47;;;;;;;13.30;9.90;;;;;;;;;;5066620;28;20188;-70
2021/12/05 16:59:15;;;;;;;12.00;9.67;;;;;;;;;;5067818;28;20184;-70
2021/12/05 17:01:40;;;;;;;13.37;10.03;;;;;;;;;;5068731;28;20223;-71
2021/12/05 17:04:05;;;;;;;13.60;10.90;;;;;;;;;;5070575;28;20208;-71
2021/12/05 17:06:44;;;;;;;14.93;10.70;;;;;;;;;;5060742;28;20726;-72
2021/12/05 17:09:11;;;;;;;15.83;11.57;;;;;;;;;;5065983;28;20195;-70
2021/12/05 17:11:37;;;;;;;13.07;10.40;;;;;;;;;;5073509;28;20262;-71
2021/12/05 17:14:02;;;;;;;14.17;10.37;;;;;;;;;;5069566;28;20181;-71
2021/12/05 17:16:29;;;;;;;16.17;11.73;;;;;;;;;;5068359;28;20695;-72
2021/12/05 17:19:01;;;;;;;15.23;11.57;;;;;;;;;;5050224;28;20195;-70
2021/12/05 17:21:31;;;;;;;17.13;12.23;;;;;;;;;;5057226;28;20185;-71
2021/12/05 17:23:56;;;;;;;17.43;12.30;;;;;;;;;;5069427;28;20288;-73
2021/12/05 17:26:23;;;;;;;19.50;12.90;;;;;;;;;;5061783;28;20696;-72
2021/12/05 17:28:48;;;;;;;19.43;13.47;;;;;;;;;;5073407;28;20200;-70
2021/12/05 17:31:15;;;;;;;17.60;13.40;;;;;;;;;;5063562;28;20214;-70
2021/12/05 17:33:45;;;;;;;20.67;12.83;;;;;;;;;;5065492;28;20193;-71
2021/12/05 17:36:21;;;;;;;16.57;12.57;;;;;;;;;;5054143;28;20635;-72
2021/12/05 17:38:48;;;;;;;18.23;12.10;;;;;;;;;;5067927;28;20230;-71
2021/12/05 17:41:13;;;;;;;18.70;12.47;;;;;;;;;;5067221;28;20904;-71
2021/12/05 17:43:38;;;;;;;18.27;12.10;;;;;;;;;;5052805;28;20291;-72
2021/12/05 17:46:04;;;;;;;18.70;11.97;;;;;;;;;;5072740;28;20197;-72
2021/12/05 17:48:29;;;;;;;19.53;13.63;;;;;;;;;;5073053;28;20276;-71
2021/12/05 17:50:55;;;;;;;18.73;12.43;;;;;;;;;;5073823;28;20199;-71
2021/12/05 17:53:21;;;;;;;16.67;12.63;;;;;;;;;;5072404;28;20181;-71
2021/12/05 17:55:48;;;;;;;19.83;12.80;;;;;;;;;;5077511;28;20204;-71
2021/12/05 17:58:34;;;;;;;21.17;13.97;;;;;;;;;;5073934;28;20176;-70
2021/12/05 18:02:41;;;;;;;19.60;13.13;;;;;;;;;;5052227;28;20207;-71
2021/12/05 18:03:44;;;;;;;16.97;12.10;;;;;;;;;;5072581;28;20225;-71
2021/12/05 18:06:10;;;;;;;20.50;13.33;;;;;;;;;;5075534;28;20188;-72
2021/12/05 18:08:35;;;;;;;19.03;13.67;;;;;;;;;;5059216;28;20898;-71
2021/12/05 18:11:03;;;;;;;20.90;14.30;;;;;;;;;;5069473;28;20486;-71
2021/12/05 18:13:33;;;;;;;18.83;13.90;;;;;;;;;;5073182;28;20226;-70
2021/12/05 18:16:05;;;;;;;18.30;12.87;;;;;;;;;;5072139;28;20582;-70
2021/12/05 18:18:31;;;;;;;17.87;12.43;;;;;;;;;;5072099;28;20204;-70
2021/12/05 18:20:57;;;;;;;18.90;13.93;;;;;;;;;;5074663;28;20180;-71
2021/12/05 18:23:22;;;;;;;17.73;13.27;;;;;;;;;;5073935;28;20205;-71
2021/12/05 18:25:47;;;;;;;18.47;12.80;;;;;;;;;;5067561;28;20216;-74
2021/12/05 18:28:13;;;;;;;23.60;15.20;;;;;;;;;;5054878;28;20220;-71
2021/12/05 18:30:38;;;;;;;19.40;13.90;;;;;;;;;;5070666;28;20188;-71
2021/12/05 18:33:05;;;;;;;19.33;14.67;;;;;;;;;;5077473;28;20200;-71
2021/12/05 18:35:32;;;;;;;21.33;12.63;;;;;;;;;;5078114;28;20227;-71
2021/12/05 18:37:58;;;;;;;18.43;13.47;;;;;;;;;;5071479;28;20185;-71
2021/12/05 18:40:24;;;;;;;18.33;13.83;;;;;;;;;;5075176;28;20184;-71
2021/12/05 18:42:50;;;;;;;17.83;12.73;;;;;;;;;;5070723;28;20640;-72
2021/12/05 18:45:19;;;;;;;18.30;12.57;;;;;;;;;;5072046;28;20201;-72
2021/12/05 18:47:44;;;;;;;19.90;13.87;;;;;;;;;;5072755;28;20219;-71
2021/12/05 18:50:09;;;;;;;18.10;12.90;;;;;;;;;;5072744;28;20177;-71
2021/12/05 18:52:36;;;;;;;16.43;12.20;;;;;;;;;;5070961;28;20213;-71
2021/12/05 18:55:05;;;;;;;15.57;11.77;;;;;;;;;;5054663;28;20200;-71
2021/12/05 18:57:30;;;;;;;17.70;12.03;;;;;;;;;;5073095;28;20185;-71
2021/12/05 19:00:04;;;;;;;18.40;13.17;;;;;;;;;;5054706;28;20185;-71
2021/12/05 19:05:18;;;;;;;18.23;12.60;;;;;;;;;;5071780;28;20211;-71
2021/12/05 19:08:03;;;;;;;16.40;12.23;;;;;;;;;;5057837;28;20192;-71
2021/12/05 19:13:13;;;;;;;17.73;12.93;;;;;;;;;;5068322;28;20199;-71
2021/12/05 19:15:38;;;;;;;19.07;13.07;;;;;;;;;;5069670;28;20672;-71
2021/12/05 19:18:04;;;;;;;18.73;12.50;;;;;;;;;;5070418;28;20622;-71
2021/12/05 19:20:29;;;;;;;19.60;13.17;;;;;;;;;;5074578;28;20234;-70
2021/12/05 19:22:55;;;;;;;17.70;12.00;;;;;;;;;;5070889;28;20212;-72
2021/12/05 19:25:23;;;;;;;16.30;12.10;;;;;;;;;;5077376;28;20236;-71
2021/12/05 19:27:49;;;;;;;16.87;11.80;;;;;;;;;;5069062;28;20307;-71
2021/12/05 19:30:25;;;;;;;15.80;11.20;;;;;;;;;;5069566;28;20185;-71
2021/12/05 19:32:50;;;;;;;19.60;12.97;;;;;;;;;;5071311;28;20215;-72
2021/12/05 19:35:17;;;;;;;16.40;12.30;;;;;;;;;;5076205;28;20652;-71
2021/12/05 19:37:43;;;;;;;17.40;11.77;;;;;;;;;;5072229;28;20560;-72
2021/12/05 19:40:10;;;;;;;17.33;12.67;;;;;;;;;;5055334;28;20188;-71
2021/12/05 19:42:35;;;;;;;17.80;12.90;;;;;;;;;;5070021;28;20204;-71